sensor_id;sensor_type;location;lat;lon;timestamp;pressure;altitude;pressure_sealevel;temperature;humidity
40502;BME280;29631;49.168;9.848;2023-09-19T00:00:21;96256.31;;;22.84;92.15
40502;BME280;29631;49.168;9.848;2023-09-19T00:02:57;96246.97;;;22.81;91.99
40502;BME280;29631;49.168;9.848;2023-09-19T00:05:28;96246.16;;;22.81;91.69
40502;BME280;29631;49.168;9.848;2023-09-19T00:07:56;96248.13;;;22.75;91.97
40502;BME280;29631;49.168;9.848;2023-09-19T00:10:28;96249.94;;;22.80;91.57
40502;BME280;29631;49.168;9.848;2023-09-19T00:13:00;96252.03;;;22.83;92.09
40502;BME280;29631;49.168;9.848;2023-09-19T00:15:27;96254.25;;;22.81;92.10
40502;BME280;29631;49.168;9.848;2023-09-19T00:17:56;96265.00;;;22.81;92.04
40502;BME280;29631;49.168;9.848;2023-09-19T00:20:22;96252.19;;;22.73;91.80
40502;BME280;29631;49.168;9.848;2023-09-19T00:22:50;96256.56;;;22.69;91.89
40502;BME280;29631;49.168;9.848;2023-09-19T00:25:20;96249.38;;;22.65;92.00
40502;BME280;29631;49.168;9.848;2023-09-19T00:27:46;96252.84;;;22.65;92.61
40502;BME280;29631;49.168;9.848;2023-09-19T00:30:17;96260.91;;;22.65;92.14
40502;BME280;29631;49.168;9.848;2023-09-19T00:32:50;96250.75;;;22.62;92.58
40502;BME280;29631;49.168;9.848;2023-09-19T00:35:23;96245.63;;;22.61;92.50
40502;BME280;29631;49.168;9.848;2023-09-19T00:37:50;96259.59;;;22.63;92.63
40502;BME280;29631;49.168;9.848;2023-09-19T00:40:16;96246.22;;;22.58;92.39
40502;BME280;29631;49.168;9.848;2023-09-19T00:42:46;96254.00;;;22.59;92.54
40502;BME280;29631;49.168;9.848;2023-09-19T00:45:14;96243.31;;;22.54;93.02
40502;BME280;29631;49.168;9.848;2023-09-19T00:47:51;96262.13;;;22.54;92.61
40502;BME280;29631;49.168;9.848;2023-09-19T00:50:23;96260.53;;;22.53;93.06
40502;BME280;29631;49.168;9.848;2023-09-19T00:52:54;96256.31;;;22.47;92.58
40502;BME280;29631;49.168;9.848;2023-09-19T00:55:24;96255.72;;;22.50;93.04
40502;BME280;29631;49.168;9.848;2023-09-19T00:57:50;96265.06;;;22.58;93.08
40502;BME280;29631;49.168;9.848;2023-09-19T01:00:16;96266.91;;;22.57;93.09
40502;BME280;29631;49.168;9.848;2023-09-19T01:02:45;96268.91;;;22.52;93.33
40502;BME280;29631;49.168;9.848;2023-09-19T01:05:12;96261.09;;;22.50;93.29
40502;BME280;29631;49.168;9.848;2023-09-19T01:07:38;96264.91;;;22.49;93.61
40502;BME280;29631;49.168;9.848;2023-09-19T01:10:13;96269.22;;;22.45;93.61
40502;BME280;29631;49.168;9.848;2023-09-19T01:13:29;96277.94;;;22.37;94.73
40502;BME280;29631;49.168;9.848;2023-09-19T01:16:08;96269.63;;;22.34;94.23
40502;BME280;29631;49.168;9.848;2023-09-19T01:25:36;96274.25;;;22.28;94.71
40502;BME280;29631;49.168;9.848;2023-09-19T01:28:20;96288.75;;;22.32;94.63
40502;BME280;29631;49.168;9.848;2023-09-19T01:30:47;96280.19;;;22.30;94.31
40502;BME280;29631;49.168;9.848;2023-09-19T01:33:19;96278.31;;;22.26;94.56
40502;BME280;29631;49.168;9.848;2023-09-19T01:35:45;96285.84;;;22.24;94.59
40502;BME280;29631;49.168;9.848;2023-09-19T01:38:11;96285.00;;;22.28;95.16
40502;BME280;29631;49.168;9.848;2023-09-19T01:40:42;96297.63;;;22.33;95.03
40502;BME280;29631;49.168;9.848;2023-09-19T01:43:20;96287.44;;;22.30;94.89
40502;BME280;29631;49.168;9.848;2023-09-19T01:46:14;96283.41;;;22.27;95.65
40502;BME280;29631;49.168;9.848;2023-09-19T01:48:49;96285.00;;;22.28;95.00
40502;BME280;29631;49.168;9.848;2023-09-19T01:51:27;96290.44;;;22.23;95.26
40502;BME280;29631;49.168;9.848;2023-09-19T01:54:02;96289.09;;;22.21;95.30
40502;BME280;29631;49.168;9.848;2023-09-19T01:59:21;96294.72;;;22.24;95.49
40502;BME280;29631;49.168;9.848;2023-09-19T02:01:52;96280.03;;;22.17;95.44
40502;BME280;29631;49.168;9.848;2023-09-19T02:04:18;96289.34;;;22.24;95.27
40502;BME280;29631;49.168;9.848;2023-09-19T02:06:44;96296.31;;;22.25;95.23
40502;BME280;29631;49.168;9.848;2023-09-19T02:09:14;96286.16;;;22.22;95.60
40502;BME280;29631;49.168;9.848;2023-09-19T02:11:42;96289.34;;;22.24;95.27
40502;BME280;29631;49.168;9.848;2023-09-19T02:14:08;96280.78;;;22.22;95.57
40502;BME280;29631;49.168;9.848;2023-09-19T02:16:35;96297.38;;;22.29;95.01
40502;BME280;29631;49.168;9.848;2023-09-19T02:19:00;96297.13;;;22.26;95.33
40502;BME280;29631;49.168;9.848;2023-09-19T02:21:30;96292.00;;;22.29;95.16
40502;BME280;29631;49.168;9.848;2023-09-19T02:23:56;96307.59;;;22.27;95.40
40502;BME280;29631;49.168;9.848;2023-09-19T02:26:22;96292.59;;;22.21;95.27
40502;BME280;29631;49.168;9.848;2023-09-19T02:28:52;96306.03;;;22.21;95.31
40502;BME280;29631;49.168;9.848;2023-09-19T02:31:18;96302.81;;;22.19;95.68
40502;BME280;29631;49.168;9.848;2023-09-19T02:33:44;96285.56;;;22.02;95.45
40502;BME280;29631;49.168;9.848;2023-09-19T02:36:11;96316.56;;;22.18;95.47
40502;BME280;29631;49.168;9.848;2023-09-19T02:38:37;96322.16;;;22.21;95.55
40502;BME280;29631;49.168;9.848;2023-09-19T02:41:03;96316.78;;;22.21;95.80
40502;BME280;29631;49.168;9.848;2023-09-19T02:43:28;96316.78;;;22.21;95.40
40502;BME280;29631;49.168;9.848;2023-09-19T02:45:55;96308.19;;;22.19;95.52
40502;BME280;29631;49.168;9.848;2023-09-19T02:48:22;96325.38;;;22.23;95.50
40502;BME280;29631;49.168;9.848;2023-09-19T02:50:51;96319.19;;;22.23;95.45
40502;BME280;29631;49.168;9.848;2023-09-19T02:53:17;96324.03;;;22.21;95.76
40502;BME280;29631;49.168;9.848;2023-09-19T02:55:44;96325.47;;;22.13;95.83
40502;BME280;29631;49.168;9.848;2023-09-19T02:58:10;96329.69;;;22.19;96.17
40502;BME280;29631;49.168;9.848;2023-09-19T03:00:39;96322.25;;;22.11;96.01
40502;BME280;29631;49.168;9.848;2023-09-19T03:03:08;96315.81;;;22.12;96.04
40502;BME280;29631;49.168;9.848;2023-09-19T03:05:34;96336.22;;;22.13;96.00
40502;BME280;29631;49.168;9.848;2023-09-19T03:08:00;96300.41;;;21.94;95.88
40502;BME280;29631;49.168;9.848;2023-09-19T03:10:27;96328.75;;;22.05;95.91
40502;BME280;29631;49.168;9.848;2023-09-19T03:12:53;96344.84;;;22.10;95.66
40502;BME280;29631;49.168;9.848;2023-09-19T03:15:19;96334.13;;;22.05;96.20
40502;BME280;29631;49.168;9.848;2023-09-19T03:17:47;96330.38;;;22.06;95.88
40502;BME280;29631;49.168;9.848;2023-09-19T03:20:14;96342.19;;;22.05;96.31
40502;BME280;29631;49.168;9.848;2023-09-19T03:22:43;96348.88;;;22.08;95.76
40502;BME280;29631;49.168;9.848;2023-09-19T03:25:09;96341.72;;;21.98;96.07
40502;BME280;29631;49.168;9.848;2023-09-19T03:27:39;96336.16;;;21.90;96.61
40502;BME280;29631;49.168;9.848;2023-09-19T03:30:06;96337.00;;;21.91;96.65
40502;BME280;29631;49.168;9.848;2023-09-19T03:32:37;96352.47;;;21.98;96.19
40502;BME280;29631;49.168;9.848;2023-09-19T03:35:08;96338.25;;;21.98;96.73
40502;BME280;29631;49.168;9.848;2023-09-19T03:37:43;96352.69;;;22.02;96.10
40502;BME280;29631;49.168;9.848;2023-09-19T03:40:10;96340.69;;;21.94;96.67
40502;BME280;29631;49.168;9.848;2023-09-19T03:42:40;96353.59;;;21.92;96.58
40502;BME280;29631;49.168;9.848;2023-09-19T03:45:10;96348.22;;;21.92;96.65
40502;BME280;29631;49.168;9.848;2023-09-19T03:47:40;96357.66;;;21.90;96.62
40502;BME280;29631;49.168;9.848;2023-09-19T03:50:07;96348.81;;;21.90;96.44
40502;BME280;29631;49.168;9.848;2023-09-19T03:52:34;96321.63;;;21.68;96.61
40502;BME280;29631;49.168;9.848;2023-09-19T03:55:00;96340.28;;;21.83;96.64
40502;BME280;29631;49.168;9.848;2023-09-19T03:57:26;96360.31;;;21.95;96.56
40502;BME280;29631;49.168;9.848;2023-09-19T03:59:53;96350.41;;;21.91;96.68
40502;BME280;29631;49.168;9.848;2023-09-19T04:02:20;96350.88;;;21.97;96.26
40502;BME280;29631;49.168;9.848;2023-09-19T04:04:50;96353.00;;;22.00;96.38
40502;BME280;29631;49.168;9.848;2023-09-19T04:07:16;96350.84;;;22.02;96.28
40502;BME280;29631;49.168;9.848;2023-09-19T04:09:42;96345.47;;;22.02;96.13
40502;BME280;29631;49.168;9.848;2023-09-19T04:12:08;96349.78;;;21.98;95.96
40502;BME280;29631;49.168;9.848;2023-09-19T04:14:34;96358.84;;;22.07;96.37
40502;BME280;29631;49.168;9.848;2023-09-19T04:17:00;96349.16;;;22.06;95.81
40502;BME280;29631;49.168;9.848;2023-09-19T04:19:26;96356.16;;;22.07;96.08
40502;BME280;29631;49.168;9.848;2023-09-19T04:21:52;96362.03;;;22.09;95.97
40502;BME280;29631;49.168;9.848;2023-09-19T04:24:17;96368.16;;;22.15;96.00
40502;BME280;29631;49.168;9.848;2023-09-19T04:26:45;96368.50;;;22.08;95.69
40502;BME280;29631;49.168;9.848;2023-09-19T04:29:11;96363.72;;;22.00;96.00
40502;BME280;29631;49.168;9.848;2023-09-19T04:31:39;96372.31;;;22.02;96.69
40502;BME280;29631;49.168;9.848;2023-09-19T04:34:08;96383.34;;;22.01;96.46
40502;BME280;29631;49.168;9.848;2023-09-19T04:36:34;96373.94;;;22.03;96.44
40502;BME280;29631;49.168;9.848;2023-09-19T04:39:03;96375.84;;;21.98;96.43
40502;BME280;29631;49.168;9.848;2023-09-19T04:41:33;96374.75;;;21.99;96.42
40502;BME280;29631;49.168;9.848;2023-09-19T04:43:59;96374.25;;;21.97;96.09
40502;BME280;29631;49.168;9.848;2023-09-19T04:46:25;96374.00;;;21.93;96.24
40502;BME280;29631;49.168;9.848;2023-09-19T04:48:51;96381.44;;;22.01;96.25
40502;BME280;29631;49.168;9.848;2023-09-19T04:51:17;96385.22;;;22.00;96.13
40502;BME280;29631;49.168;9.848;2023-09-19T04:53:44;96389.97;;;22.08;96.41
40502;BME280;29631;49.168;9.848;2023-09-19T04:56:09;96393.19;;;22.10;95.76
40502;BME280;29631;49.168;9.848;2023-09-19T04:58:35;96401.72;;;22.17;96.12
40502;BME280;29631;49.168;9.848;2023-09-19T05:01:01;96393.13;;;22.15;96.03
40502;BME280;29631;49.168;9.848;2023-09-19T05:03:27;96405.97;;;22.23;95.84
40502;BME280;29631;49.168;9.848;2023-09-19T05:05:53;96403.84;;;22.20;95.88
40502;BME280;29631;49.168;9.848;2023-09-19T05:08:19;96406.50;;;22.20;96.19
40502;BME280;29631;49.168;9.848;2023-09-19T05:10:45;96410.00;;;22.21;95.98
40502;BME280;29631;49.168;9.848;2023-09-19T05:13:11;96420.19;;;22.24;95.87
40502;BME280;29631;49.168;9.848;2023-09-19T05:15:37;96418.88;;;22.21;95.85
40502;BME280;29631;49.168;9.848;2023-09-19T05:18:03;96420.41;;;22.27;96.13
40502;BME280;29631;49.168;9.848;2023-09-19T05:20:29;96417.72;;;22.27;95.75
40502;BME280;29631;49.168;9.848;2023-09-19T05:23:06;96422.31;;;22.27;95.98
40502;BME280;29631;49.168;9.848;2023-09-19T05:25:39;96418.28;;;22.24;96.18
40502;BME280;29631;49.168;9.848;2023-09-19T05:28:10;96418.88;;;22.21;96.26
40502;BME280;29631;49.168;9.848;2023-09-19T05:30:37;96428.47;;;22.27;96.49
40502;BME280;29631;49.168;9.848;2023-09-19T05:33:04;96434.41;;;22.24;95.90
40502;BME280;29631;49.168;9.848;2023-09-19T05:35:31;96434.16;;;22.21;95.91
40502;BME280;29631;49.168;9.848;2023-09-19T05:37:57;96428.59;;;22.17;95.90
40502;BME280;29631;49.168;9.848;2023-09-19T05:40:24;96427.53;;;22.13;95.65
40502;BME280;29631;49.168;9.848;2023-09-19T05:42:50;96438.84;;;22.10;95.67
40502;BME280;29631;49.168;9.848;2023-09-19T05:45:17;96440.78;;;22.05;96.24
40502;BME280;29631;49.168;9.848;2023-09-19T05:47:48;96440.06;;;21.94;96.05
40502;BME280;29631;49.168;9.848;2023-09-19T05:50:14;96444.94;;;21.88;95.92
40502;BME280;29631;49.168;9.848;2023-09-19T05:52:42;96435.84;;;21.84;96.05
40502;BME280;29631;49.168;9.848;2023-09-19T05:55:10;96440.66;;;21.87;96.08
40502;BME280;29631;49.168;9.848;2023-09-19T05:57:37;96441.97;;;21.89;96.07
40502;BME280;29631;49.168;9.848;2023-09-19T06:00:08;96429.75;;;21.73;96.42
40502;BME280;29631;49.168;9.848;2023-09-19T06:02:38;96452.75;;;21.84;96.12
40502;BME280;29631;49.168;9.848;2023-09-19T06:05:06;96459.69;;;21.90;96.34
40502;BME280;29631;49.168;9.848;2023-09-19T06:07:35;96463.44;;;21.89;96.38
40502;BME280;29631;49.168;9.848;2023-09-19T06:10:05;96466.41;;;21.88;96.20
40502;BME280;29631;49.168;9.848;2023-09-19T06:12:31;96467.25;;;21.88;96.41
40502;BME280;29631;49.168;9.848;2023-09-19T06:14:59;96476.63;;;21.91;96.27
40502;BME280;29631;49.168;9.848;2023-09-19T06:17:25;96462.13;;;21.87;96.28
40502;BME280;29631;49.168;9.848;2023-09-19T06:19:52;96481.94;;;21.95;95.81
40502;BME280;29631;49.168;9.848;2023-09-19T06:22:18;96478.19;;;21.96;96.58
40502;BME280;29631;49.168;9.848;2023-09-19T06:24:44;96469.06;;;21.92;95.88
40502;BME280;29631;49.168;9.848;2023-09-19T06:27:10;96469.88;;;21.93;95.93
40502;BME280;29631;49.168;9.848;2023-09-19T06:29:36;96477.34;;;22.01;95.95
40502;BME280;29631;49.168;9.848;2023-09-19T06:32:10;96488.81;;;22.06;95.40
40502;BME280;29631;49.168;9.848;2023-09-19T06:34:36;96481.34;;;22.03;95.84
40502;BME280;29631;49.168;9.848;2023-09-19T06:37:04;96490.16;;;22.09;95.56
40502;BME280;29631;49.168;9.848;2023-09-19T06:39:32;96489.34;;;22.08;95.67
40502;BME280;29631;49.168;9.848;2023-09-19T06:41:58;96472.81;;;21.96;95.52
40502;BME280;29631;49.168;9.848;2023-09-19T06:44:24;96484.28;;;22.02;95.26
40502;BME280;29631;49.168;9.848;2023-09-19T06:46:50;96492.09;;;22.03;95.63
40502;BME280;29631;49.168;9.848;2023-09-19T06:49:19;96493.22;;;21.97;95.49
40502;BME280;29631;49.168;9.848;2023-09-19T06:51:44;96499.63;;;22.01;95.20
40502;BME280;29631;49.168;9.848;2023-09-19T06:54:10;96497.47;;;22.03;95.05
40502;BME280;29631;49.168;9.848;2023-09-19T06:56:36;96489.41;;;22.03;95.39
40502;BME280;29631;49.168;9.848;2023-09-19T06:59:02;96498.78;;;22.06;95.31
40502;BME280;29631;49.168;9.848;2023-09-19T07:01:29;96523.19;;;22.09;94.80
40502;BME280;29631;49.168;9.848;2023-09-19T07:03:55;96508.72;;;22.05;95.41
40502;BME280;29631;49.168;9.848;2023-09-19T07:06:21;96514.06;;;22.10;95.02
40502;BME280;29631;49.168;9.848;2023-09-19T07:08:46;96523.69;;;22.16;95.00
40502;BME280;29631;49.168;9.848;2023-09-19T07:11:12;96518.31;;;22.16;95.02
40502;BME280;29631;49.168;9.848;2023-09-19T07:13:38;96514.56;;;22.17;94.92
40502;BME280;29631;49.168;9.848;2023-09-19T07:16:05;96513.44;;;22.18;94.74
40502;BME280;29631;49.168;9.848;2023-09-19T07:18:30;96485.34;;;22.06;94.51
40502;BME280;29631;49.168;9.848;2023-09-19T07:20:58;96508.06;;;22.23;94.57
40502;BME280;29631;49.168;9.848;2023-09-19T07:23:30;96516.94;;;22.19;94.52
40502;BME280;29631;49.168;9.848;2023-09-19T07:26:01;96518.78;;;22.23;94.30
40502;BME280;29631;49.168;9.848;2023-09-19T07:28:27;96522.81;;;22.26;94.79
40502;BME280;29631;49.168;9.848;2023-09-19T07:30:54;96528.97;;;22.26;94.35
40502;BME280;29631;49.168;9.848;2023-09-19T07:33:19;96530.06;;;22.30;94.48
40502;BME280;29631;49.168;9.848;2023-09-19T07:35:47;96532.47;;;22.32;94.24
40502;BME280;29631;49.168;9.848;2023-09-19T07:38:13;96532.75;;;22.30;94.42
40502;BME280;29631;49.168;9.848;2023-09-19T07:40:39;96557.63;;;22.41;93.91
40502;BME280;29631;49.168;9.848;2023-09-19T07:43:05;96551.47;;;22.40;94.13
40502;BME280;29631;49.168;9.848;2023-09-19T07:45:32;96554.34;;;22.49;94.28
40502;BME280;29631;49.168;9.848;2023-09-19T07:47:58;96541.66;;;22.54;94.38
40502;BME280;29631;49.168;9.848;2023-09-19T07:50:29;96546.47;;;22.57;93.70
40502;BME280;29631;49.168;9.848;2023-09-19T07:52:56;96557.69;;;22.69;94.34
40502;BME280;29631;49.168;9.848;2023-09-19T07:55:22;96545.03;;;22.69;93.64
40502;BME280;29631;49.168;9.848;2023-09-19T07:57:54;96553.75;;;22.85;93.24
40502;BME280;29631;49.168;9.848;2023-09-19T08:00:20;96556.91;;;22.92;93.29
40502;BME280;29631;49.168;9.848;2023-09-19T08:02:46;96555.81;;;22.93;92.99
40502;BME280;29631;49.168;9.848;2023-09-19T08:05:13;96570.28;;;22.97;92.94
40502;BME280;29631;49.168;9.848;2023-09-19T08:07:44;96574.59;;;22.98;92.74
40502;BME280;29631;49.168;9.848;2023-09-19T08:10:16;96563.94;;;22.88;92.51
40502;BME280;29631;49.168;9.848;2023-09-19T08:12:46;96591.22;;;23.05;92.17
40502;BME280;29631;49.168;9.848;2023-09-19T08:15:17;96578.38;;;22.97;91.75
40502;BME280;29631;49.168;9.848;2023-09-19T08:17:48;96593.66;;;23.01;92.21
40502;BME280;29631;49.168;9.848;2023-09-19T08:20:14;96583.22;;;22.95;91.59
40502;BME280;29631;49.168;9.848;2023-09-19T08:22:53;96600.16;;;22.95;91.06
40502;BME280;29631;49.168;9.848;2023-09-19T08:25:22;96593.00;;;22.86;91.19
40502;BME280;29631;49.168;9.848;2023-09-19T08:27:49;96598.91;;;22.88;90.96
40502;BME280;29631;49.168;9.848;2023-09-19T08:30:16;96609.09;;;22.91;90.70
40502;BME280;29631;49.168;9.848;2023-09-19T08:32:43;96603.75;;;22.86;90.88
40502;BME280;29631;49.168;9.848;2023-09-19T08:35:10;96612.91;;;22.85;90.33
40502;BME280;29631;49.168;9.848;2023-09-19T08:37:36;96604.06;;;22.84;90.15
40502;BME280;29631;49.168;9.848;2023-09-19T08:40:02;96605.41;;;22.82;90.47
40502;BME280;29631;49.168;9.848;2023-09-19T08:42:28;96601.13;;;22.81;89.63
40502;BME280;29631;49.168;9.848;2023-09-19T08:44:55;96607.59;;;22.80;89.44
40502;BME280;29631;49.168;9.848;2023-09-19T08:47:38;96616.69;;;22.84;89.19
40502;BME280;29631;49.168;9.848;2023-09-19T08:50:23;96607.28;;;22.81;89.10
40502;BME280;29631;49.168;9.848;2023-09-19T08:52:52;96611.53;;;22.87;88.70
40502;BME280;29631;49.168;9.848;2023-09-19T08:55:26;96620.88;;;22.95;88.31
40502;BME280;29631;49.168;9.848;2023-09-19T08:58:02;96617.06;;;23.01;88.43
40502;BME280;29631;49.168;9.848;2023-09-19T09:00:28;96618.38;;;23.08;88.19
40502;BME280;29631;49.168;9.848;2023-09-19T09:02:57;96620.78;;;23.10;87.97
40502;BME280;29631;49.168;9.848;2023-09-19T09:05:24;96621.59;;;23.10;87.95
40502;BME280;29631;49.168;9.848;2023-09-19T09:07:52;96622.38;;;23.11;87.57
40502;BME280;29631;49.168;9.848;2023-09-19T09:10:22;96618.59;;;23.12;87.50
40502;BME280;29631;49.168;9.848;2023-09-19T09:12:53;96615.84;;;23.17;87.42
40502;BME280;29631;49.168;9.848;2023-09-19T09:15:23;96614.47;;;23.19;87.35
40502;BME280;29631;49.168;9.848;2023-09-19T09:17:51;96625.63;;;23.36;87.55
40502;BME280;29631;49.168;9.848;2023-09-19T09:20:19;96623.66;;;23.41;87.40
40502;BME280;29631;49.168;9.848;2023-09-19T09:22:51;96611.88;;;23.38;86.73
40502;BME280;29631;49.168;9.848;2023-09-19T09:25:18;96633.75;;;23.54;86.90
40502;BME280;29631;49.168;9.848;2023-09-19T09:27:58;96630.44;;;23.62;86.49
40502;BME280;29631;49.168;9.848;2023-09-19T09:30:36;96620.44;;;23.63;86.06
40502;BME280;29631;49.168;9.848;2023-09-19T09:33:13;96628.19;;;23.69;85.85
40502;BME280;29631;49.168;9.848;2023-09-19T09:35:59;96641.94;;;23.73;85.57
40502;BME280;29631;49.168;9.848;2023-09-19T09:38:42;96629.28;;;23.68;85.94
40502;BME280;29631;49.168;9.848;2023-09-19T09:41:09;96630.84;;;23.74;85.82
40502;BME280;29631;49.168;9.848;2023-09-19T09:43:39;96622.78;;;23.74;85.26
40502;BME280;29631;49.168;9.848;2023-09-19T09:46:12;96638.84;;;23.84;84.99
40502;BME280;29631;49.168;9.848;2023-09-19T09:49:01;96622.94;;;23.83;84.42
40502;BME280;29631;49.168;9.848;2023-09-19T09:52:06;96625.94;;;23.81;84.45
40502;BME280;29631;49.168;9.848;2023-09-19T09:55:02;96626.72;;;23.82;84.20
40502;BME280;29631;49.168;9.848;2023-09-19T09:57:31;96615.69;;;23.83;84.75
40502;BME280;29631;49.168;9.848;2023-09-19T09:59:59;96613.47;;;23.85;84.59
40502;BME280;29631;49.168;9.848;2023-09-19T10:02:42;96611.31;;;23.87;84.52
40502;BME280;29631;49.168;9.848;2023-09-19T10:07:53;96624.88;;;24.19;84.00
40502;BME280;29631;49.168;9.848;2023-09-19T10:10:55;96608.63;;;24.24;84.03
40502;BME280;29631;49.168;9.848;2023-09-19T10:13:33;96619.81;;;24.36;83.25
40502;BME280;29631;49.168;9.848;2023-09-19T10:16:06;96607.50;;;24.30;83.18
40502;BME280;29631;49.168;9.848;2023-09-19T10:18:36;96635.63;;;24.42;83.45
40502;BME280;29631;49.168;9.848;2023-09-19T10:21:05;96622.97;;;24.43;82.56
40502;BME280;29631;49.168;9.848;2023-09-19T10:23:33;96630.44;;;24.46;83.49
40502;BME280;29631;49.168;9.848;2023-09-19T10:26:01;96625.19;;;24.54;83.34
40502;BME280;29631;49.168;9.848;2023-09-19T10:28:28;96635.09;;;24.59;83.07
40502;BME280;29631;49.168;9.848;2023-09-19T10:30:56;96620.88;;;24.53;82.81
40502;BME280;29631;49.168;9.848;2023-09-19T10:33:24;96634.91;;;24.55;82.95
40502;BME280;29631;49.168;9.848;2023-09-19T10:35:59;96640.28;;;24.55;82.16
40502;BME280;29631;49.168;9.848;2023-09-19T10:38:27;96638.19;;;24.52;82.25
40502;BME280;29631;49.168;9.848;2023-09-19T10:40:56;96637.88;;;24.54;82.04
40502;BME280;29631;49.168;9.848;2023-09-19T10:43:33;96637.66;;;24.50;81.49
40502;BME280;29631;49.168;9.848;2023-09-19T10:46:07;96643.06;;;24.50;81.23
40502;BME280;29631;49.168;9.848;2023-09-19T10:48:33;96624.53;;;24.44;81.80
40502;BME280;29631;49.168;9.848;2023-09-19T10:53:59;96640.28;;;24.55;81.69
40502;BME280;29631;49.168;9.848;2023-09-19T10:56:35;96641.47;;;24.49;81.16
40502;BME280;29631;49.168;9.848;2023-09-19T10:59:16;96636.84;;;24.50;81.15
40502;BME280;29631;49.168;9.848;2023-09-19T11:01:52;96637.66;;;24.50;80.78
40502;BME280;29631;49.168;9.848;2023-09-19T11:04:30;96638.03;;;24.44;80.73
40502;BME280;29631;49.168;9.848;2023-09-19T11:07:08;96633.66;;;24.48;80.87
40502;BME280;29631;49.168;9.848;2023-09-19T11:09:53;96626.19;;;24.40;81.13
40502;BME280;29631;49.168;9.848;2023-09-19T11:15:07;96647.06;;;24.53;81.11
40502;BME280;29631;49.168;9.848;2023-09-19T11:17:38;96639.50;;;24.55;81.22
40502;BME280;29631;49.168;9.848;2023-09-19T11:30:38;96614.22;;;24.83;81.29
40502;BME280;29631;49.168;9.848;2023-09-19T11:36:03;96604.47;;;25.00;80.93
40502;BME280;29631;49.168;9.848;2023-09-19T11:43:46;96603.25;;;25.24;79.98
40502;BME280;29631;49.168;9.848;2023-09-19T11:46:12;96611.16;;;25.34;80.06
40502;BME280;29631;49.168;9.848;2023-09-19T11:48:43;96610.78;;;25.41;79.57
40502;BME280;29631;49.168;9.848;2023-09-19T11:51:15;96596.19;;;25.42;78.94
40502;BME280;29631;49.168;9.848;2023-09-19T11:53:46;96600.59;;;25.51;78.89
40502;BME280;29631;49.168;9.848;2023-09-19T11:56:17;96595.19;;;25.51;79.44
40502;BME280;29631;49.168;9.848;2023-09-19T11:58:49;96597.97;;;25.60;79.13
40502;BME280;29631;49.168;9.848;2023-09-19T12:01:32;96604.78;;;25.70;79.04
40502;BME280;29631;49.168;9.848;2023-09-19T12:04:01;96597.75;;;25.69;78.96
40502;BME280;29631;49.168;9.848;2023-09-19T12:06:30;96586.75;;;25.66;78.66
40502;BME280;29631;49.168;9.848;2023-09-19T12:08:58;96601.56;;;25.68;78.37
40502;BME280;29631;49.168;9.848;2023-09-19T12:11:30;96598.81;;;25.73;78.05
40502;BME280;29631;49.168;9.848;2023-09-19T12:13:59;96604.91;;;25.79;78.53
40502;BME280;29631;49.168;9.848;2023-09-19T12:16:26;96598.91;;;25.82;78.26
40502;BME280;29631;49.168;9.848;2023-09-19T12:18:56;96588.41;;;25.80;78.09
40502;BME280;29631;49.168;9.848;2023-09-19T12:21:29;96597.19;;;25.86;77.70
40502;BME280;29631;49.168;9.848;2023-09-19T12:26:39;96582.56;;;26.00;77.78
40502;BME280;29631;49.168;9.848;2023-09-19T12:29:12;96578.34;;;26.08;78.05
40502;BME280;29631;49.168;9.848;2023-09-19T12:31:54;96570.31;;;26.16;77.67
40502;BME280;29631;49.168;9.848;2023-09-19T12:34:27;96560.72;;;26.10;76.99
40502;BME280;29631;49.168;9.848;2023-09-19T12:37:13;96560.78;;;26.19;77.11
40502;BME280;29631;49.168;9.848;2023-09-19T12:39:53;96572.09;;;26.21;77.16
40502;BME280;29631;49.168;9.848;2023-09-19T12:42:25;96567.78;;;26.20;76.98
40502;BME280;29631;49.168;9.848;2023-09-19T12:44:57;96560.31;;;26.17;77.24
40502;BME280;29631;49.168;9.848;2023-09-19T12:47:27;96561.66;;;26.28;76.81
40502;BME280;29631;49.168;9.848;2023-09-19T12:50:15;96571.25;;;26.34;75.89
40502;BME280;29631;49.168;9.848;2023-09-19T12:52:49;96560.13;;;26.35;76.12
40502;BME280;29631;49.168;9.848;2023-09-19T12:55:29;96564.97;;;26.38;75.84
40502;BME280;29631;49.168;9.848;2023-09-19T12:58:12;96567.22;;;26.44;75.56
40502;BME280;29631;49.168;9.848;2023-09-19T13:00:42;96553.03;;;26.39;75.51
40502;BME280;29631;49.168;9.848;2023-09-19T13:06:03;96542.09;;;26.31;75.09
40502;BME280;29631;49.168;9.848;2023-09-19T13:08:38;96552.44;;;26.29;75.10
40502;BME280;29631;49.168;9.848;2023-09-19T13:11:14;96549.84;;;26.24;74.44
40502;BME280;29631;49.168;9.848;2023-09-19T13:13:47;96547.75;;;26.21;74.63
40502;BME280;29631;49.168;9.848;2023-09-19T13:16:20;96550.84;;;26.28;75.12
40502;BME280;29631;49.168;9.848;2023-09-19T13:18:53;96550.72;;;26.33;74.94
40502;BME280;29631;49.168;9.848;2023-09-19T13:21:31;96558.94;;;26.41;74.31
40502;BME280;29631;49.168;9.848;2023-09-19T13:24:24;96562.00;;;26.48;74.55
40502;BME280;29631;49.168;9.848;2023-09-19T13:26:55;96540.06;;;26.49;75.22
40502;BME280;29631;49.168;9.848;2023-09-19T13:29:21;96548.34;;;26.53;74.69
40502;BME280;29631;49.168;9.848;2023-09-19T13:31:51;96553.09;;;26.69;74.65
40502;BME280;29631;49.168;9.848;2023-09-19T13:34:20;96558.25;;;26.79;74.24
40502;BME280;29631;49.168;9.848;2023-09-19T13:36:47;96553.81;;;26.83;73.83
40502;BME280;29631;49.168;9.848;2023-09-19T13:39:16;96560.22;;;26.87;73.56
40502;BME280;29631;49.168;9.848;2023-09-19T13:41:45;96536.78;;;26.83;73.33
40502;BME280;29631;49.168;9.848;2023-09-19T13:44:12;96540.63;;;26.90;73.29
40502;BME280;29631;49.168;9.848;2023-09-19T13:46:38;96550.38;;;26.91;73.17
40502;BME280;29631;49.168;9.848;2023-09-19T13:49:04;96545.91;;;26.95;73.37
40502;BME280;29631;49.168;9.848;2023-09-19T13:51:31;96555.44;;;27.06;73.31
40502;BME280;29631;49.168;9.848;2023-09-19T13:53:57;96558.50;;;27.13;73.29
40502;BME280;29631;49.168;9.848;2023-09-19T13:56:23;96540.31;;;27.14;72.70